sensor_id;sensor_type;location;lat;lon;timestamp;pressure;altitude;pressure_sealevel;temperature
72236;BMP280;60146;52.498;13.462;2024-02-04T00:01:53;99123.53;;;9.86
72236;BMP280;60146;52.498;13.462;2024-02-04T00:04:19;99141.69;;;9.74
72236;BMP280;60146;52.498;13.462;2024-02-04T00:06:44;99229.66;;;9.62
72236;BMP280;60146;52.498;13.462;2024-02-04T00:09:09;99281.69;;;9.64
72236;BMP280;60146;52.498;13.462;2024-02-04T00:11:35;99273.06;;;9.63
72236;BMP280;60146;52.498;13.462;2024-02-04T00:14:00;99317.06;;;9.70
72236;BMP280;60146;52.498;13.462;2024-02-04T00:16:26;99299.53;;;9.78
72236;BMP280;60146;52.498;13.462;2024-02-04T00:18:51;99323.22;;;9.73
72236;BMP280;60146;52.498;13.462;2024-02-04T00:21:16;99282.31;;;9.77
72236;BMP280;60146;52.498;13.462;2024-02-04T00:23:42;99373.38;;;9.75
72236;BMP280;60146;52.498;13.462;2024-02-04T00:26:07;99438.28;;;9.73
72236;BMP280;60146;52.498;13.462;2024-02-04T00:28:33;99439.25;;;9.77
72236;BMP280;60146;52.498;13.462;2024-02-04T00:30:58;99518.44;;;9.70
72236;BMP280;60146;52.498;13.462;2024-02-04T00:33:24;99479.06;;;9.74
72236;BMP280;60146;52.498;13.462;2024-02-04T00:35:50;99509.38;;;9.75
72236;BMP280;60146;52.498;13.462;2024-02-04T00:38:15;99517.53;;;9.74
72236;BMP280;60146;52.498;13.462;2024-02-04T00:40:40;99520.63;;;9.76
72236;BMP280;60146;52.498;13.462;2024-02-04T00:43:06;99531.03;;;9.68
72236;BMP280;60146;52.498;13.462;2024-02-04T00:45:31;99480.28;;;9.69
72236;BMP280;60146;52.498;13.462;2024-02-04T00:47:57;99423.00;;;9.59
72236;BMP280;60146;52.498;13.462;2024-02-04T00:50:22;99386.19;;;9.47
72236;BMP280;60146;52.498;13.462;2024-02-04T00:52:48;99466.78;;;9.45
72236;BMP280;60146;52.498;13.462;2024-02-04T00:55:13;99523.75;;;9.35
72236;BMP280;60146;52.498;13.462;2024-02-04T00:57:38;99511.47;;;9.22
72236;BMP280;60146;52.498;13.462;2024-02-04T01:00:04;99517.63;;;9.18
72236;BMP280;60146;52.498;13.462;2024-02-04T01:02:30;99482.88;;;9.17
72236;BMP280;60146;52.498;13.462;2024-02-04T01:04:55;99464.81;;;9.08
72236;BMP280;60146;52.498;13.462;2024-02-04T01:07:21;99461.53;;;9.02
72236;BMP280;60146;52.498;13.462;2024-02-04T01:09:46;99415.69;;;8.96
72236;BMP280;60146;52.498;13.462;2024-02-04T01:12:12;99458.69;;;8.91
72236;BMP280;60146;52.498;13.462;2024-02-04T01:14:37;99463.69;;;8.87
72236;BMP280;60146;52.498;13.462;2024-02-04T01:17:02;99452.63;;;8.82
72236;BMP280;60146;52.498;13.462;2024-02-04T01:19:28;99416.75;;;8.74
72236;BMP280;60146;52.498;13.462;2024-02-04T01:21:53;99410.09;;;8.68
72236;BMP280;60146;52.498;13.462;2024-02-04T01:24:19;99399.97;;;8.67
72236;BMP280;60146;52.498;13.462;2024-02-04T01:26:44;99387.91;;;8.57
72236;BMP280;60146;52.498;13.462;2024-02-04T01:29:09;99349.81;;;8.56
72236;BMP280;60146;52.498;13.462;2024-02-04T01:31:34;99314.56;;;8.46
72236;BMP280;60146;52.498;13.462;2024-02-04T01:34:00;99286.69;;;8.54
72236;BMP280;60146;52.498;13.462;2024-02-04T01:36:25;99292.56;;;8.60
72236;BMP280;60146;52.498;13.462;2024-02-04T01:38:50;99271.84;;;8.63
72236;BMP280;60146;52.498;13.462;2024-02-04T01:41:16;99301.53;;;8.67
72236;BMP280;60146;52.498;13.462;2024-02-04T01:43:41;99282.53;;;8.75
72236;BMP280;60146;52.498;13.462;2024-02-04T01:46:07;99261.06;;;8.56
72236;BMP280;60146;52.498;13.462;2024-02-04T01:48:33;99196.44;;;8.62
72236;BMP280;60146;52.498;13.462;2024-02-04T01:50:59;99189.47;;;8.49
72236;BMP280;60146;52.498;13.462;2024-02-04T01:53:26;99126.00;;;8.40
72236;BMP280;60146;52.498;13.462;2024-02-04T01:55:52;99095.66;;;8.44
72236;BMP280;60146;52.498;13.462;2024-02-04T01:58:17;99082.09;;;8.34
72236;BMP280;60146;52.498;13.462;2024-02-04T02:00:43;99029.75;;;8.30
72236;BMP280;60146;52.498;13.462;2024-02-04T02:03:11;98987.69;;;8.24
72236;BMP280;60146;52.498;13.462;2024-02-04T02:05:37;98967.44;;;8.29
72236;BMP280;60146;52.498;13.462;2024-02-04T02:08:04;98962.22;;;8.29
72236;BMP280;60146;52.498;13.462;2024-02-04T02:10:30;98938.41;;;8.22
72236;BMP280;60146;52.498;13.462;2024-02-04T02:13:00;98970.47;;;8.23
72236;BMP280;60146;52.498;13.462;2024-02-04T02:15:32;98939.34;;;8.26
72236;BMP280;60146;52.498;13.462;2024-02-04T02:20:44;98922.44;;;8.15
72236;BMP280;60146;52.498;13.462;2024-02-04T02:23:30;98899.09;;;8.10
72236;BMP280;60146;52.498;13.462;2024-02-04T02:25:55;98892.50;;;8.21
72236;BMP280;60146;52.498;13.462;2024-02-04T02:28:21;98924.09;;;8.11
72236;BMP280;60146;52.498;13.462;2024-02-04T02:30:46;98903.72;;;8.13
72236;BMP280;60146;52.498;13.462;2024-02-04T02:33:11;98912.28;;;8.06
72236;BMP280;60146;52.498;13.462;2024-02-04T02:35:37;98871.16;;;8.03
72236;BMP280;60146;52.498;13.462;2024-02-04T02:40:51;98839.09;;;7.94
72236;BMP280;60146;52.498;13.462;2024-02-04T02:43:17;98841.22;;;7.92
72236;BMP280;60146;52.498;13.462;2024-02-04T02:45:44;98828.03;;;7.88
72236;BMP280;60146;52.498;13.462;2024-02-04T02:48:11;98807.97;;;8.06
72236;BMP280;60146;52.498;13.462;2024-02-04T02:50:37;98838.47;;;7.88
72236;BMP280;60146;52.498;13.462;2024-02-04T02:53:03;98809.34;;;7.95
72236;BMP280;60146;52.498;13.462;2024-02-04T02:55:28;98835.28;;;8.00
72236;BMP280;60146;52.498;13.462;2024-02-04T02:57:54;98822.09;;;8.05
72236;BMP280;60146;52.498;13.462;2024-02-04T03:00:19;98822.41;;;8.03
72236;BMP280;60146;52.498;13.462;2024-02-04T03:02:44;98816.56;;;8.06
72236;BMP280;60146;52.498;13.462;2024-02-04T03:05:10;98828.22;;;8.08
72236;BMP280;60146;52.498;13.462;2024-02-04T03:07:37;98812.13;;;7.98
72236;BMP280;60146;52.498;13.462;2024-02-04T03:10:02;98767.78;;;8.07
72236;BMP280;60146;52.498;13.462;2024-02-04T03:12:28;98770.88;;;8.08
72236;BMP280;60146;52.498;13.462;2024-02-04T03:14:53;98789.44;;;8.24
72236;BMP280;60146;52.498;13.462;2024-02-04T03:17:20;98766.09;;;8.19
72236;BMP280;60146;52.498;13.462;2024-02-04T03:19:50;98736.34;;;8.28
72236;BMP280;60146;52.498;13.462;2024-02-04T03:22:17;98757.34;;;8.40
72236;BMP280;60146;52.498;13.462;2024-02-04T03:24:43;98748.72;;;8.31
72236;BMP280;60146;52.498;13.462;2024-02-04T03:27:08;98733.41;;;8.38
72236;BMP280;60146;52.498;13.462;2024-02-04T03:29:34;98783.13;;;8.49
72236;BMP280;60146;52.498;13.462;2024-02-04T03:31:59;98766.38;;;8.50
72236;BMP280;60146;52.498;13.462;2024-02-04T03:34:24;98792.31;;;8.55
72236;BMP280;60146;52.498;13.462;2024-02-04T03:36:50;98798.94;;;8.53
72236;BMP280;60146;52.498;13.462;2024-02-04T03:39:15;98826.56;;;8.62
72236;BMP280;60146;52.498;13.462;2024-02-04T03:41:40;98848.34;;;8.66
72236;BMP280;60146;52.498;13.462;2024-02-04T03:44:06;98841.16;;;8.63
72236;BMP280;60146;52.498;13.462;2024-02-04T03:46:31;98856.03;;;8.71
72236;BMP280;60146;52.498;13.462;2024-02-04T03:48:57;98880.44;;;8.58
72236;BMP280;60146;52.498;13.462;2024-02-04T03:51:22;98849.13;;;8.58
72236;BMP280;60146;52.498;13.462;2024-02-04T03:53:48;98840.19;;;8.59
72236;BMP280;60146;52.498;13.462;2024-02-04T03:56:14;98878.31;;;8.60
72236;BMP280;60146;52.498;13.462;2024-02-04T03:58:39;98875.06;;;8.71
72236;BMP280;60146;52.498;13.462;2024-02-04T04:01:05;98907.63;;;8.66
72236;BMP280;60146;52.498;13.462;2024-02-04T04:03:30;98876.91;;;8.63
72236;BMP280;60146;52.498;13.462;2024-02-04T04:05:55;98876.59;;;8.64
72236;BMP280;60146;52.498;13.462;2024-02-04T04:08:21;98903.47;;;8.65
72236;BMP280;60146;52.498;13.462;2024-02-04T04:10:46;98901.78;;;8.52
72236;BMP280;60146;52.498;13.462;2024-02-04T04:13:12;98887.34;;;8.46
72236;BMP280;60146;52.498;13.462;2024-02-04T04:15:41;98872.16;;;8.48
72236;BMP280;60146;52.498;13.462;2024-02-04T04:18:07;98863.53;;;8.31
72236;BMP280;60146;52.498;13.462;2024-02-04T04:20:32;98808.31;;;8.29
72236;BMP280;60146;52.498;13.462;2024-02-04T04:22:58;98825.94;;;8.32
72236;BMP280;60146;52.498;13.462;2024-02-04T04:25:23;98805.69;;;8.21
72236;BMP280;60146;52.498;13.462;2024-02-04T04:27:48;98786.38;;;8.22
72236;BMP280;60146;52.498;13.462;2024-02-04T04:30:14;98762.72;;;8.18
72236;BMP280;60146;52.498;13.462;2024-02-04T04:32:39;98769.34;;;8.07
72236;BMP280;60146;52.498;13.462;2024-02-04T04:35:05;98744.03;;;8.00
72236;BMP280;60146;52.498;13.462;2024-02-04T04:37:30;98768.09;;;8.13
72236;BMP280;60146;52.498;13.462;2024-02-04T04:39:55;98798.78;;;8.16
72236;BMP280;60146;52.498;13.462;2024-02-04T04:42:21;98804.31;;;8.15
72236;BMP280;60146;52.498;13.462;2024-02-04T04:44:46;98837.75;;;8.13
72236;BMP280;60146;52.498;13.462;2024-02-04T04:47:12;98843.72;;;8.05
72236;BMP280;60146;52.498;13.462;2024-02-04T04:49:37;98823.91;;;7.96
72236;BMP280;60146;52.498;13.462;2024-02-04T04:52:02;98790.66;;;8.01
72236;BMP280;60146;52.498;13.462;2024-02-04T04:54:28;98816.84;;;7.88
72236;BMP280;60146;52.498;13.462;2024-02-04T04:56:53;98803.63;;;7.93
72236;BMP280;60146;52.498;13.462;2024-02-04T04:59:19;98810.09;;;7.87
72236;BMP280;60146;52.498;13.462;2024-02-04T05:01:48;98821.13;;;7.84
72236;BMP280;60146;52.498;13.462;2024-02-04T05:04:14;98832.38;;;8.01
72236;BMP280;60146;52.498;13.462;2024-02-04T05:06:40;98858.56;;;7.88
72236;BMP280;60146;52.498;13.462;2024-02-04T05:09:05;98848.25;;;7.91
72236;BMP280;60146;52.498;13.462;2024-02-04T05:11:31;98836.91;;;7.79
72236;BMP280;60146;52.498;13.462;2024-02-04T05:13:56;98860.41;;;7.87
72236;BMP280;60146;52.498;13.462;2024-02-04T05:16:21;98857.78;;;7.79
72236;BMP280;60146;52.498;13.462;2024-02-04T05:18:47;98843.66;;;7.80
72236;BMP280;60146;52.498;13.462;2024-02-04T05:21:12;98832.47;;;7.80
72236;BMP280;60146;52.498;13.462;2024-02-04T05:23:37;98870.81;;;7.87
72236;BMP280;60146;52.498;13.462;2024-02-04T05:26:04;98847.22;;;7.84
72236;BMP280;60146;52.498;13.462;2024-02-04T05:28:30;98847.19;;;7.76
72236;BMP280;60146;52.498;13.462;2024-02-04T05:30:55;98830.47;;;7.77
72236;BMP280;60146;52.498;13.462;2024-02-04T05:33:20;98848.25;;;7.75
72236;BMP280;60146;52.498;13.462;2024-02-04T05:35:46;98843.78;;;7.84
72236;BMP280;60146;52.498;13.462;2024-02-04T05:38:11;98855.00;;;7.92
72236;BMP280;60146;52.498;13.462;2024-02-04T05:40:36;98872.78;;;7.82
72236;BMP280;60146;52.498;13.462;2024-02-04T05:43:02;98902.41;;;7.86
72236;BMP280;60146;52.498;13.462;2024-02-04T05:45:32;98928.31;;;7.91
72236;BMP280;60146;52.498;13.462;2024-02-04T05:47:58;98926.94;;;7.85
72236;BMP280;60146;52.498;13.462;2024-02-04T05:50:23;98945.00;;;7.82
72236;BMP280;60146;52.498;13.462;2024-02-04T05:52:48;98946.72;;;7.86
72236;BMP280;60146;52.498;13.462;2024-02-04T05:55:14;98957.72;;;7.83
72236;BMP280;60146;52.498;13.462;2024-02-04T05:57:39;98983.69;;;7.88
72236;BMP280;60146;52.498;13.462;2024-02-04T06:00:06;98992.59;;;7.87
72236;BMP280;60146;52.498;13.462;2024-02-04T06:02:32;99028.22;;;8.00
72236;BMP280;60146;52.498;13.462;2024-02-04T06:04:58;99026.94;;;7.89
72236;BMP280;60146;52.498;13.462;2024-02-04T06:07:23;99031.44;;;7.97
72236;BMP280;60146;52.498;13.462;2024-02-04T06:09:48;99008.84;;;7.92
72236;BMP280;60146;52.498;13.462;2024-02-04T06:12:14;98998.28;;;7.89
72236;BMP280;60146;52.498;13.462;2024-02-04T06:14:39;98994.91;;;7.88
72236;BMP280;60146;52.498;13.462;2024-02-04T06:17:06;98984.50;;;7.97
72236;BMP280;60146;52.498;13.462;2024-02-04T06:19:34;98979.88;;;7.94
72236;BMP280;60146;52.498;13.462;2024-02-04T06:22:00;98977.78;;;8.04
72236;BMP280;60146;52.498;13.462;2024-02-04T06:24:25;99003.44;;;8.10
72236;BMP280;60146;52.498;13.462;2024-02-04T06:26:50;99033.06;;;8.14
72236;BMP280;60146;52.498;13.462;2024-02-04T06:29:15;99027.84;;;8.14
72236;BMP280;60146;52.498;13.462;2024-02-04T06:31:44;99039.03;;;8.15
72236;BMP280;60146;52.498;13.462;2024-02-04T06:34:27;99041.34;;;8.16
72236;BMP280;60146;52.498;13.462;2024-02-04T06:36:53;99026.91;;;8.10
72236;BMP280;60146;52.498;13.462;2024-02-04T06:39:18;99016.94;;;8.12
72236;BMP280;60146;52.498;13.462;2024-02-04T06:41:43;99011.56;;;8.09
72236;BMP280;60146;52.498;13.462;2024-02-04T06:44:11;98970.72;;;8.05
72236;BMP280;60146;52.498;13.462;2024-02-04T06:46:36;98971.97;;;8.07
72236;BMP280;60146;52.498;13.462;2024-02-04T06:49:01;98934.25;;;8.13
72236;BMP280;60146;52.498;13.462;2024-02-04T06:51:27;98917.19;;;8.07
72236;BMP280;60146;52.498;13.462;2024-02-04T06:53:52;98866.28;;;8.09
72236;BMP280;60146;52.498;13.462;2024-02-04T06:56:17;98844.97;;;8.07
72236;BMP280;60146;52.498;13.462;2024-02-04T06:58:43;98804.63;;;8.13
72236;BMP280;60146;52.498;13.462;2024-02-04T07:01:10;98795.56;;;8.11
72236;BMP280;60146;52.498;13.462;2024-02-04T07:03:35;98794.78;;;8.10
72236;BMP280;60146;52.498;13.462;2024-02-04T07:06:00;98770.88;;;8.08
72236;BMP280;60146;52.498;13.462;2024-02-04T07:08:26;98784.22;;;8.15
72236;BMP280;60146;52.498;13.462;2024-02-04T07:10:52;98779.59;;;8.12
72236;BMP280;60146;52.498;13.462;2024-02-04T07:13:18;98784.38;;;8.10
72236;BMP280;60146;52.498;13.462;2024-02-04T07:15:44;98802.16;;;8.17
72236;BMP280;60146;52.498;13.462;2024-02-04T07:18:09;98804.88;;;8.12
72236;BMP280;60146;52.498;13.462;2024-02-04T07:20:35;98821.34;;;8.29
72236;BMP280;60146;52.498;13.462;2024-02-04T07:23:00;98835.31;;;8.33
72236;BMP280;60146;52.498;13.462;2024-02-04T07:25:26;98856.47;;;8.23
72236;BMP280;60146;52.498;13.462;2024-02-04T07:27:51;98875.06;;;8.30
72236;BMP280;60146;52.498;13.462;2024-02-04T07:30:17;98880.88;;;8.27
72236;BMP280;60146;52.498;13.462;2024-02-04T07:32:42;98898.09;;;8.36
72236;BMP280;60146;52.498;13.462;2024-02-04T07:35:08;98930.47;;;8.44
72236;BMP280;60146;52.498;13.462;2024-02-04T07:37:36;98969.31;;;8.45
72236;BMP280;60146;52.498;13.462;2024-02-04T07:40:02;98998.97;;;8.57
72236;BMP280;60146;52.498;13.462;2024-02-04T07:42:30;99026.00;;;8.61
72236;BMP280;60146;52.498;13.462;2024-02-04T07:44:55;99004.34;;;8.52
72236;BMP280;60146;52.498;13.462;2024-02-04T07:47:21;99044.59;;;8.60
72236;BMP280;60146;52.498;13.462;2024-02-04T07:49:47;99032.75;;;8.62
72236;BMP280;60146;52.498;13.462;2024-02-04T07:52:13;99045.69;;;8.67
72236;BMP280;60146;52.498;13.462;2024-02-04T07:54:38;99056.25;;;8.62
72236;BMP280;60146;52.498;13.462;2024-02-04T07:57:04;99039.53;;;8.63
72236;BMP280;60146;52.498;13.462;2024-02-04T07:59:29;99053.97;;;8.69
72236;BMP280;60146;52.498;13.462;2024-02-04T08:01:54;99080.13;;;8.86
72236;BMP280;60146;52.498;13.462;2024-02-04T08:04:19;99112.53;;;8.85
72236;BMP280;60146;52.498;13.462;2024-02-04T08:06:45;99120.25;;;8.98
72236;BMP280;60146;52.498;13.462;2024-02-04T08:09:10;99134.22;;;8.93
72236;BMP280;60146;52.498;13.462;2024-02-04T08:11:37;99150.53;;;9.07
72236;BMP280;60146;52.498;13.462;2024-02-04T08:14:02;99176.09;;;9.18
72236;BMP280;60146;52.498;13.462;2024-02-04T08:16:27;99217.13;;;9.18
72236;BMP280;60146;52.498;13.462;2024-02-04T08:18:53;99256.34;;;9.34
72236;BMP280;60146;52.498;13.462;2024-02-04T08:21:18;99289.38;;;9.31
72236;BMP280;60146;52.498;13.462;2024-02-04T08:23:43;99331.28;;;9.39
72236;BMP280;60146;52.498;13.462;2024-02-04T08:26:10;99341.59;;;9.52
72236;BMP280;60146;52.498;13.462;2024-02-04T08:28:35;99406.50;;;9.50
72236;BMP280;60146;52.498;13.462;2024-02-04T08:31:00;99390.47;;;9.43
72236;BMP280;60146;52.498;13.462;2024-02-04T08:33:26;99414.50;;;9.45
72236;BMP280;60146;52.498;13.462;2024-02-04T08:35:51;99434.66;;;9.53
72236;BMP280;60146;52.498;13.462;2024-02-04T08:38:16;99464.47;;;9.52
72236;BMP280;60146;52.498;13.462;2024-02-04T08:40:42;99481.94;;;9.35
72236;BMP280;60146;52.498;13.462;2024-02-04T08:43:07;99490.00;;;9.47
72236;BMP280;60146;52.498;13.462;2024-02-04T08:45:32;99557.16;;;9.38
72236;BMP280;60146;52.498;13.462;2024-02-04T08:47:58;99537.63;;;9.44
72236;BMP280;60146;52.498;13.462;2024-02-04T08:50:23;99543.16;;;9.42
72236;BMP280;60146;52.498;13.462;2024-02-04T08:52:48;99537.84;;;9.47
72236;BMP280;60146;52.498;13.462;2024-02-04T08:55:14;99535.06;;;9.52
72236;BMP280;60146;52.498;13.462;2024-02-04T08:57:40;99580.66;;;9.38
72236;BMP280;60146;52.498;13.462;2024-02-04T09:00:05;99568.75;;;9.45
72236;BMP280;60146;52.498;13.462;2024-02-04T09:02:34;99584.06;;;9.38
72236;BMP280;60146;52.498;13.462;2024-02-04T09:04:59;99544.22;;;9.41
72236;BMP280;60146;52.498;13.462;2024-02-04T09:07:25;99577.81;;;9.48
72236;BMP280;60146;52.498;13.462;2024-02-04T09:09:50;99588.06;;;9.44
72236;BMP280;60146;52.498;13.462;2024-02-04T09:12:16;99608.06;;;9.62
72236;BMP280;60146;52.498;13.462;2024-02-04T09:14:41;99629.34;;;9.47
72236;BMP280;60146;52.498;13.462;2024-02-04T09:17:07;99615.25;;;9.56
72236;BMP280;60146;52.498;13.462;2024-02-04T09:19:32;99641.22;;;9.53
72236;BMP280;60146;52.498;13.462;2024-02-04T09:21:57;99610.13;;;9.52
72236;BMP280;60146;52.498;13.462;2024-02-04T09:24:23;99631.34;;;9.50
72236;BMP280;60146;52.498;13.462;2024-02-04T09:26:48;99661.66;;;9.64
72236;BMP280;60146;52.498;13.462;2024-02-04T09:29:14;99693.47;;;9.66
72236;BMP280;60146;52.498;13.462;2024-02-04T09:31:39;99736.75;;;9.85
72236;BMP280;60146;52.498;13.462;2024-02-04T09:34:05;99744.53;;;9.98
72236;BMP280;60146;52.498;13.462;2024-02-04T09:36:30;99782.22;;;10.11
72236;BMP280;60146;52.498;13.462;2024-02-04T09:38:55;99831.59;;;10.04
72236;BMP280;60146;52.498;13.462;2024-02-04T09:41:21;99856.75;;;10.13
72236;BMP280;60146;52.498;13.462;2024-02-04T09:43:52;99919.56;;;10.26
72236;BMP280;60146;52.498;13.462;2024-02-04T09:46:17;99936.72;;;10.32
72236;BMP280;60146;52.498;13.462;2024-02-04T09:48:44;99990.13;;;10.57
72236;BMP280;60146;52.498;13.462;2024-02-04T09:51:10;100050.44;;;10.66
72236;BMP280;60146;52.498;13.462;2024-02-04T09:53:40;100083.28;;;10.50
72236;BMP280;60146;52.498;13.462;2024-02-04T09:56:08;100063.34;;;10.62
72236;BMP280;60146;52.498;13.462;2024-02-04T09:58:34;100097.81;;;10.56
72236;BMP280;60146;52.498;13.462;2024-02-04T10:01:00;100088.91;;;10.44
72236;BMP280;60146;52.498;13.462;2024-02-04T10:03:26;100083.44;;;10.54
72236;BMP280;60146;52.498;13.462;2024-02-04T10:05:51;100116.81;;;10.75
72236;BMP280;60146;52.498;13.462;2024-02-04T10:08:17;100125.66;;;10.65
72236;BMP280;60146;52.498;13.462;2024-02-04T10:10:42;100132.53;;;10.61
72236;BMP280;60146;52.498;13.462;2024-02-04T10:13:09;100145.25;;;10.55
72236;BMP280;60146;52.498;13.462;2024-02-04T10:15:34;100175.34;;;10.70
72236;BMP280;60146;52.498;13.462;2024-02-04T10:18:03;100160.28;;;10.62
72236;BMP280;60146;52.498;13.462;2024-02-04T10:20:29;100236.72;;;10.96
72236;BMP280;60146;52.498;13.462;2024-02-04T10:22:55;100287.31;;;11.36
72236;BMP280;60146;52.498;13.462;2024-02-04T10:25:20;100366.00;;;11.75
72236;BMP280;60146;52.498;13.462;2024-02-04T10:27:46;100399.03;;;11.89
72236;BMP280;60146;52.498;13.462;2024-02-04T10:30:12;100421.50;;;11.69
72236;BMP280;60146;52.498;13.462;2024-02-04T10:32:38;100413.84;;;11.59
72236;BMP280;60146;52.498;13.462;2024-02-04T10:35:04;100422.53;;;11.73
72236;BMP280;60146;52.498;13.462;2024-02-04T10:37:29;100415.19;;;11.43
72236;BMP280;60146;52.498;13.462;2024-02-04T10:39:54;100395.84;;;11.39
72236;BMP280;60146;52.498;13.462;2024-02-04T10:42:25;100411.69;;;11.35
72236;BMP280;60146;52.498;13.462;2024-02-04T10:44:54;100407.22;;;11.35
72236;BMP280;60146;52.498;13.462;2024-02-04T10:47:25;100392.44;;;10.95
72236;BMP280;60146;52.498;13.462;2024-02-04T10:49:55;100400.84;;;10.78
72236;BMP280;60146;52.498;13.462;2024-02-04T10:52:22;100398.22;;;10.78
72236;BMP280;60146;52.498;13.462;2024-02-04T10:54:51;100346.66;;;10.74
72236;BMP280;60146;52.498;13.462;2024-02-04T10:57:20;100348.88;;;10.67
72236;BMP280;60146;52.498;13.462;2024-02-04T10:59:47;100322.75;;;10.62
72236;BMP280;60146;52.498;13.462;2024-02-04T11:02:15;100317.41;;;10.67
72236;BMP280;60146;52.498;13.462;2024-02-04T11:04:42;100325.59;;;10.48
72236;BMP280;60146;52.498;13.462;2024-02-04T11:07:08;100330.25;;;10.69
72236;BMP280;60146;52.498;13.462;2024-02-04T11:09:35;100297.53;;;10.66
72236;BMP280;60146;52.498;13.462;2024-02-04T11:12:01;100314.72;;;10.72
72236;BMP280;60146;52.498;13.462;2024-02-04T11:14:29;100335.28;;;10.65
72236;BMP280;60146;52.498;13.462;2024-02-04T11:17:20;100305.34;;;10.53
72236;BMP280;60146;52.498;13.462;2024-02-04T11:27:56;100299.38;;;10.66
72236;BMP280;60146;52.498;13.462;2024-02-04T11:30:23;100292.69;;;10.73
72236;BMP280;60146;52.498;13.462;2024-02-04T11:32:48;100301.78;;;10.75
72236;BMP280;60146;52.498;13.462;2024-02-04T11:35:14;100292.84;;;10.63
72236;BMP280;60146;52.498;13.462;2024-02-04T11:37:39;100296.09;;;10.74
72236;BMP280;60146;52.498;13.462;2024-02-04T11:40:14;100298.19;;;10.58
72236;BMP280;60146;52.498;13.462;2024-02-04T11:42:41;100291.31;;;10.62
72236;BMP280;60146;52.498;13.462;2024-02-04T11:45:09;100266.81;;;10.54
72236;BMP280;60146;52.498;13.462;2024-02-04T11:47:34;100243.88;;;10.46
72236;BMP280;60146;52.498;13.462;2024-02-04T11:50:03;100219.22;;;10.20
72236;BMP280;60146;52.498;13.462;2024-02-04T11:52:29;100215.81;;;10.51
72236;BMP280;60146;52.498;13.462;2024-02-04T11:54:54;100236.00;;;10.64
72236;BMP280;60146;52.498;13.462;2024-02-04T11:57:20;100271.13;;;10.63
72236;BMP280;60146;52.498;13.462;2024-02-04T11:59:46;100282.16;;;10.60
72236;BMP280;60146;52.498;13.462;2024-02-04T12:02:12;100283.91;;;10.51
72236;BMP280;60146;52.498;13.462;2024-02-04T12:04:38;100274.63;;;10.72
72236;BMP280;60146;52.498;13.462;2024-02-04T12:07:05;100288.44;;;10.77
72236;BMP280;60146;52.498;13.462;2024-02-04T12:09:30;100305.47;;;10.75
72236;BMP280;60146;52.498;13.462;2024-02-04T12:11:57;100328.66;;;10.99
72236;BMP280;60146;52.498;13.462;2024-02-04T12:14:22;100333.41;;;10.97
72236;BMP280;60146;52.498;13.462;2024-02-04T12:16:48;100317.69;;;10.97
72236;BMP280;60146;52.498;13.462;2024-02-04T12:19:13;100318.59;;;11.06
72236;BMP280;60146;52.498;13.462;2024-02-04T12:21:39;100349.47;;;11.09
72236;BMP280;60146;52.498;13.462;2024-02-04T12:24:05;100351.19;;;10.87
72236;BMP280;60146;52.498;13.462;2024-02-04T12:26:30;100326.44;;;10.61
72236;BMP280;60146;52.498;13.462;2024-02-04T12:28:56;100329.28;;;10.29
72236;BMP280;60146;52.498;13.462;2024-02-04T12:31:25;100243.66;;;10.29
72236;BMP280;60146;52.498;13.462;2024-02-04T12:34:00;100272.03;;;10.40
72236;BMP280;60146;52.498;13.462;2024-02-04T12:36:30;100266.72;;;10.27
72236;BMP280;60146;52.498;13.462;2024-02-04T12:38:58;100268.28;;;10.28
72236;BMP280;60146;52.498;13.462;2024-02-04T12:41:24;100269.44;;;10.22
72236;BMP280;60146;52.498;13.462;2024-02-04T12:43:54;100272.97;;;10.31
72236;BMP280;60146;52.498;13.462;2024-02-04T12:46:20;100271.47;;;10.25
72236;BMP280;60146;52.498;13.462;2024-02-04T12:48:58;100275.28;;;10.33
72236;BMP280;60146;52.498;13.462;2024-02-04T12:51:28;100275.38;;;10.28
72236;BMP280;60146;52.498;13.462;2024-02-04T12:54:10;100289.44;;;10.32
72236;BMP280;60146;52.498;13.462;2024-02-04T12:59:11;100311.59;;;10.21
72236;BMP280;60146;52.498;13.462;2024-02-04T13:01:37;100309.69;;;10.26
72236;BMP280;60146;52.498;13.462;2024-02-04T13:04:03;100324.78;;;10.34
72236;BMP280;60146;52.498;13.462;2024-02-04T13:06:28;100346.28;;;10.31
72236;BMP280;60146;52.498;13.462;2024-02-04T13:08:55;100339.91;;;10.19
72236;BMP280;60146;52.498;13.462;2024-02-04T13:11:23;100346.22;;;10.36
72236;BMP280;60146;52.498;13.462;2024-02-04T13:13:48;100341.13;;;10.26
72236;BMP280;60146;52.498;13.462;2024-02-04T13:16:13;100336.19;;;10.38
72236;BMP280;60146;52.498;13.462;2024-02-04T13:18:39;100345.66;;;10.39
72236;BMP280;60146;52.498;13.462;2024-02-04T13:21:04;100344.03;;;10.43
72236;BMP280;60146;52.498;13.462;2024-02-04T13:23:29;100344.59;;;10.40
72236;BMP280;60146;52.498;13.462;2024-02-04T13:25:55;100340.66;;;10.37
72236;BMP280;60146;52.498;13.462;2024-02-04T13:28:20;100337.72;;;10.44
72236;BMP280;60146;52.498;13.462;2024-02-04T13:30:48;100344.28;;;10.23
72236;BMP280;60146;52.498;13.462;2024-02-04T13:33:13;100329.59;;;10.27
72236;BMP280;60146;52.498;13.462;2024-02-04T13:35:39;100318.53;;;10.30
72236;BMP280;60146;52.498;13.462;2024-02-04T13:38:04;100343.09;;;10.34
72236;BMP280;60146;52.498;13.462;2024-02-04T13:40:30;100325.13;;;10.28
72236;BMP280;60146;52.498;13.462;2024-02-04T13:42:56;100319.09;;;10.27
72236;BMP280;60146;52.498;13.462;2024-02-04T13:45:21;100317.25;;;10.28
72236;BMP280;60146;52.498;13.462;2024-02-04T13:47:47;100320.09;;;10.31
72236;BMP280;60146;52.498;13.462;2024-02-04T13:50:13;100297.00;;;10.20
72236;BMP280;60146;52.498;13.462;2024-02-04T13:52:38;100309.41;;;10.28
72236;BMP280;60146;52.498;13.462;2024-02-04T13:55:05;100301.84;;;10.26
72236;BMP280;60146;52.498;13.462;2024-02-04T13:57:32;100313.31;;;10.30
72236;BMP280;60146;52.498;13.462;2024-02-04T13:59:58;100321.22;;;10.25
72236;BMP280;60146;52.498;13.462;2024-02-04T14:02:23;100288.25;;;10.24
72236;BMP280;60146;52.498;13.462;2024-02-04T14:04:50;100299.94;;;10.32
72236;BMP280;60146;52.498;13.462;2024-02-04T14:07:15;100284.66;;;10.20
72236;BMP280;60146;52.498;13.462;2024-02-04T14:09:41;100264.13;;;10.09
72236;BMP280;60146;52.498;13.462;2024-02-04T14:12:06;100260.66;;;10.14